sensor_id;sensor_type;location;lat;lon;timestamp;temperature;humidity
610;DHT22;292;48.800;9.216;2023-05-17T00:01:53;12.20;54.10
610;DHT22;292;48.800;9.216;2023-05-17T00:04:21;12.20;54.20
610;DHT22;292;48.800;9.216;2023-05-17T00:06:47;12.20;54.50
610;DHT22;292;48.800;9.216;2023-05-17T00:09:14;12.20;54.60
610;DHT22;292;48.800;9.216;2023-05-17T00:11:42;12.20;54.60
610;DHT22;292;48.800;9.216;2023-05-17T00:14:10;12.20;54.50
610;DHT22;292;48.800;9.216;2023-05-17T00:16:37;12.20;54.50
610;DHT22;292;48.800;9.216;2023-05-17T00:19:04;12.20;54.50
610;DHT22;292;48.800;9.216;2023-05-17T00:21:31;12.20;54.60
610;DHT22;292;48.800;9.216;2023-05-17T00:23:58;12.10;54.80
610;DHT22;292;48.800;9.216;2023-05-17T00:26:25;12.10;55.00
610;DHT22;292;48.800;9.216;2023-05-17T00:28:55;12.10;55.30
610;DHT22;292;48.800;9.216;2023-05-17T00:31:23;12.10;55.40
610;DHT22;292;48.800;9.216;2023-05-17T00:33:50;12.10;55.60
610;DHT22;292;48.800;9.216;2023-05-17T00:36:18;12.10;55.80
610;DHT22;292;48.800;9.216;2023-05-17T00:38:45;12.10;56.00
610;DHT22;292;48.800;9.216;2023-05-17T00:41:12;12.10;56.00
610;DHT22;292;48.800;9.216;2023-05-17T00:43:39;12.10;56.10
610;DHT22;292;48.800;9.216;2023-05-17T00:46:06;12.00;56.20
610;DHT22;292;48.800;9.216;2023-05-17T00:48:34;12.00;56.50
610;DHT22;292;48.800;9.216;2023-05-17T00:51:02;12.00;57.00
610;DHT22;292;48.800;9.216;2023-05-17T00:53:29;12.00;57.30
610;DHT22;292;48.800;9.216;2023-05-17T00:55:56;12.00;57.70
610;DHT22;292;48.800;9.216;2023-05-17T00:58:23;12.00;58.10
610;DHT22;292;48.800;9.216;2023-05-17T01:00:51;12.00;58.40
610;DHT22;292;48.800;9.216;2023-05-17T01:03:18;12.00;58.50
610;DHT22;292;48.800;9.216;2023-05-17T01:05:48;11.90;58.40
610;DHT22;292;48.800;9.216;2023-05-17T01:08:16;11.90;58.40
610;DHT22;292;48.800;9.216;2023-05-17T01:10:49;11.80;58.50
610;DHT22;292;48.800;9.216;2023-05-17T01:13:23;11.80;59.00
610;DHT22;292;48.800;9.216;2023-05-17T01:15:59;11.80;59.20
610;DHT22;292;48.800;9.216;2023-05-17T01:18:31;11.80;59.00
610;DHT22;292;48.800;9.216;2023-05-17T01:21:27;11.80;58.90
610;DHT22;292;48.800;9.216;2023-05-17T01:24:07;11.80;59.00
610;DHT22;292;48.800;9.216;2023-05-17T01:26:42;11.80;59.30
610;DHT22;292;48.800;9.216;2023-05-17T01:29:11;11.80;59.60
610;DHT22;292;48.800;9.216;2023-05-17T01:31:41;11.80;59.60
610;DHT22;292;48.800;9.216;2023-05-17T01:34:08;11.80;59.80
610;DHT22;292;48.800;9.216;2023-05-17T01:36:37;11.70;59.80
610;DHT22;292;48.800;9.216;2023-05-17T01:39:04;11.70;59.80
610;DHT22;292;48.800;9.216;2023-05-17T01:41:36;11.70;59.80
610;DHT22;292;48.800;9.216;2023-05-17T01:44:15;11.70;59.80
610;DHT22;292;48.800;9.216;2023-05-17T01:46:43;11.70;60.10
610;DHT22;292;48.800;9.216;2023-05-17T01:49:22;11.70;60.10
610;DHT22;292;48.800;9.216;2023-05-17T01:51:57;11.70;60.40
610;DHT22;292;48.800;9.216;2023-05-17T01:54:32;11.60;60.50
610;DHT22;292;48.800;9.216;2023-05-17T01:57:04;11.60;60.70
610;DHT22;292;48.800;9.216;2023-05-17T01:59:37;11.60;61.00
610;DHT22;292;48.800;9.216;2023-05-17T02:02:04;11.60;61.10
610;DHT22;292;48.800;9.216;2023-05-17T02:04:33;11.50;61.20
610;DHT22;292;48.800;9.216;2023-05-17T02:07:00;11.50;61.40
610;DHT22;292;48.800;9.216;2023-05-17T02:09:27;11.50;61.40
610;DHT22;292;48.800;9.216;2023-05-17T02:11:55;11.50;61.40
610;DHT22;292;48.800;9.216;2023-05-17T02:14:22;11.50;61.20
610;DHT22;292;48.800;9.216;2023-05-17T02:16:51;11.50;61.20
610;DHT22;292;48.800;9.216;2023-05-17T02:19:18;11.50;61.50
610;DHT22;292;48.800;9.216;2023-05-17T02:21:45;11.50;61.50
610;DHT22;292;48.800;9.216;2023-05-17T02:24:12;11.40;61.40
610;DHT22;292;48.800;9.216;2023-05-17T02:26:39;11.40;61.70
610;DHT22;292;48.800;9.216;2023-05-17T02:29:07;11.40;62.00
610;DHT22;292;48.800;9.216;2023-05-17T02:31:35;11.40;62.30
610;DHT22;292;48.800;9.216;2023-05-17T02:34:04;11.40;62.30
610;DHT22;292;48.800;9.216;2023-05-17T02:36:31;11.30;62.30
610;DHT22;292;48.800;9.216;2023-05-17T02:38:58;11.30;62.40
610;DHT22;292;48.800;9.216;2023-05-17T02:41:25;11.20;62.00
610;DHT22;292;48.800;9.216;2023-05-17T02:43:52;11.20;61.70
610;DHT22;292;48.800;9.216;2023-05-17T02:46:19;11.10;61.40
610;DHT22;292;48.800;9.216;2023-05-17T02:48:47;11.00;61.50
610;DHT22;292;48.800;9.216;2023-05-17T02:51:15;10.90;61.50
610;DHT22;292;48.800;9.216;2023-05-17T02:53:42;10.90;61.50
610;DHT22;292;48.800;9.216;2023-05-17T02:56:09;10.80;61.50
610;DHT22;292;48.800;9.216;2023-05-17T02:58:37;10.80;61.50
610;DHT22;292;48.800;9.216;2023-05-17T03:01:04;10.70;61.70
610;DHT22;292;48.800;9.216;2023-05-17T03:03:31;10.70;61.80
610;DHT22;292;48.800;9.216;2023-05-17T03:05:59;10.70;61.80
610;DHT22;292;48.800;9.216;2023-05-17T03:08:28;10.70;62.10
610;DHT22;292;48.800;9.216;2023-05-17T03:10:56;10.70;62.30
610;DHT22;292;48.800;9.216;2023-05-17T03:13:23;10.70;62.30
610;DHT22;292;48.800;9.216;2023-05-17T03:15:50;10.70;62.30
610;DHT22;292;48.800;9.216;2023-05-17T03:18:17;10.70;62.40
610;DHT22;292;48.800;9.216;2023-05-17T03:20:44;10.80;62.50
610;DHT22;292;48.800;9.216;2023-05-17T03:23:11;10.80;62.80
610;DHT22;292;48.800;9.216;2023-05-17T03:25:40;10.80;63.00
610;DHT22;292;48.800;9.216;2023-05-17T03:28:07;10.80;63.40
610;DHT22;292;48.800;9.216;2023-05-17T03:30:34;10.80;63.80
610;DHT22;292;48.800;9.216;2023-05-17T03:33:01;10.80;64.10
610;DHT22;292;48.800;9.216;2023-05-17T03:35:28;10.80;64.40
610;DHT22;292;48.800;9.216;2023-05-17T03:37:55;10.80;64.70
610;DHT22;292;48.800;9.216;2023-05-17T03:40:22;10.90;64.70
610;DHT22;292;48.800;9.216;2023-05-17T03:42:51;10.80;64.60
610;DHT22;292;48.800;9.216;2023-05-17T03:45:18;10.80;64.40
610;DHT22;292;48.800;9.216;2023-05-17T03:47:45;10.80;64.10
610;DHT22;292;48.800;9.216;2023-05-17T03:50:12;10.70;64.10
610;DHT22;292;48.800;9.216;2023-05-17T03:52:39;10.70;63.80
610;DHT22;292;48.800;9.216;2023-05-17T03:55:08;10.70;63.80
610;DHT22;292;48.800;9.216;2023-05-17T03:57:35;10.70;63.70
610;DHT22;292;48.800;9.216;2023-05-17T04:00:04;10.70;63.70
610;DHT22;292;48.800;9.216;2023-05-17T04:02:36;10.70;63.70
610;DHT22;292;48.800;9.216;2023-05-17T04:05:03;10.60;63.70
610;DHT22;292;48.800;9.216;2023-05-17T04:07:31;10.60;63.70
610;DHT22;292;48.800;9.216;2023-05-17T04:09:58;10.60;63.70
610;DHT22;292;48.800;9.216;2023-05-17T04:12:27;10.60;63.70
610;DHT22;292;48.800;9.216;2023-05-17T04:14:54;10.60;63.80
610;DHT22;292;48.800;9.216;2023-05-17T04:17:23;10.60;63.80
610;DHT22;292;48.800;9.216;2023-05-17T04:19:52;10.60;64.00
610;DHT22;292;48.800;9.216;2023-05-17T04:22:19;10.60;64.00
610;DHT22;292;48.800;9.216;2023-05-17T04:24:46;10.60;64.00
610;DHT22;292;48.800;9.216;2023-05-17T04:27:13;10.60;64.10
610;DHT22;292;48.800;9.216;2023-05-17T04:29:40;10.60;64.00
610;DHT22;292;48.800;9.216;2023-05-17T04:32:07;10.60;64.00
610;DHT22;292;48.800;9.216;2023-05-17T04:34:36;10.50;64.00
610;DHT22;292;48.800;9.216;2023-05-17T04:37:04;10.50;64.10
610;DHT22;292;48.800;9.216;2023-05-17T04:39:32;10.60;64.30
610;DHT22;292;48.800;9.216;2023-05-17T04:41:59;10.60;64.30
610;DHT22;292;48.800;9.216;2023-05-17T04:44:26;10.60;64.30
610;DHT22;292;48.800;9.216;2023-05-17T04:46:53;10.60;64.30
610;DHT22;292;48.800;9.216;2023-05-17T04:49:20;10.60;64.10
610;DHT22;292;48.800;9.216;2023-05-17T04:51:51;10.60;64.10
610;DHT22;292;48.800;9.216;2023-05-17T04:54:18;10.60;64.10
610;DHT22;292;48.800;9.216;2023-05-17T04:56:45;10.60;64.30
610;DHT22;292;48.800;9.216;2023-05-17T04:59:12;10.60;64.10
610;DHT22;292;48.800;9.216;2023-05-17T05:01:39;10.60;64.10
610;DHT22;292;48.800;9.216;2023-05-17T05:04:06;10.60;64.00
610;DHT22;292;48.800;9.216;2023-05-17T05:06:34;10.60;64.00
610;DHT22;292;48.800;9.216;2023-05-17T05:09:03;10.60;64.00
610;DHT22;292;48.800;9.216;2023-05-17T05:11:31;10.70;64.00
610;DHT22;292;48.800;9.216;2023-05-17T05:13:58;10.70;63.80
610;DHT22;292;48.800;9.216;2023-05-17T05:16:25;10.60;63.70
610;DHT22;292;48.800;9.216;2023-05-17T05:18:52;10.60;63.70
610;DHT22;292;48.800;9.216;2023-05-17T05:21:19;10.60;63.80
610;DHT22;292;48.800;9.216;2023-05-17T05:23:46;10.60;63.80
610;DHT22;292;48.800;9.216;2023-05-17T05:26:15;10.60;63.70
610;DHT22;292;48.800;9.216;2023-05-17T05:28:41;10.60;63.70
610;DHT22;292;48.800;9.216;2023-05-17T05:31:09;10.60;63.70
610;DHT22;292;48.800;9.216;2023-05-17T05:33:36;10.60;63.70
610;DHT22;292;48.800;9.216;2023-05-17T05:36:03;10.60;63.80
610;DHT22;292;48.800;9.216;2023-05-17T05:38:31;10.60;64.00
610;DHT22;292;48.800;9.216;2023-05-17T05:40:58;10.60;63.80
610;DHT22;292;48.800;9.216;2023-05-17T05:43:26;10.60;63.80
610;DHT22;292;48.800;9.216;2023-05-17T05:45:53;10.60;64.00
610;DHT22;292;48.800;9.216;2023-05-17T05:48:20;10.70;64.10
610;DHT22;292;48.800;9.216;2023-05-17T05:50:47;10.70;64.10
610;DHT22;292;48.800;9.216;2023-05-17T05:53:14;10.70;63.80
610;DHT22;292;48.800;9.216;2023-05-17T05:55:42;10.80;63.80
610;DHT22;292;48.800;9.216;2023-05-17T05:58:09;10.80;63.80
610;DHT22;292;48.800;9.216;2023-05-17T06:00:37;10.80;63.70
610;DHT22;292;48.800;9.216;2023-05-17T06:03:04;10.80;63.70
610;DHT22;292;48.800;9.216;2023-05-17T06:05:31;10.90;63.70
610;DHT22;292;48.800;9.216;2023-05-17T06:07:58;10.90;63.70
610;DHT22;292;48.800;9.216;2023-05-17T06:10:26;10.90;63.60
610;DHT22;292;48.800;9.216;2023-05-17T06:12:53;11.00;63.60
610;DHT22;292;48.800;9.216;2023-05-17T06:15:20;11.00;63.60
610;DHT22;292;48.800;9.216;2023-05-17T06:17:48;11.00;63.60
610;DHT22;292;48.800;9.216;2023-05-17T06:20:15;11.10;63.60
610;DHT22;292;48.800;9.216;2023-05-17T06:22:42;11.10;63.60
610;DHT22;292;48.800;9.216;2023-05-17T06:25:09;11.10;63.60
610;DHT22;292;48.800;9.216;2023-05-17T06:27:36;11.10;63.40
610;DHT22;292;48.800;9.216;2023-05-17T06:30:04;11.20;63.60
610;DHT22;292;48.800;9.216;2023-05-17T06:32:32;11.20;63.40
610;DHT22;292;48.800;9.216;2023-05-17T06:35:01;11.20;63.40
610;DHT22;292;48.800;9.216;2023-05-17T06:37:29;11.20;63.40
610;DHT22;292;48.800;9.216;2023-05-17T06:40:01;11.30;63.40
610;DHT22;292;48.800;9.216;2023-05-17T06:42:30;11.30;63.60
610;DHT22;292;48.800;9.216;2023-05-17T06:44:57;11.40;63.60
610;DHT22;292;48.800;9.216;2023-05-17T06:47:25;11.40;63.60
610;DHT22;292;48.800;9.216;2023-05-17T06:49:52;11.50;63.40
610;DHT22;292;48.800;9.216;2023-05-17T06:52:21;11.50;63.40
610;DHT22;292;48.800;9.216;2023-05-17T06:54:48;11.50;63.40
610;DHT22;292;48.800;9.216;2023-05-17T06:57:15;11.60;63.30
610;DHT22;292;48.800;9.216;2023-05-17T06:59:42;11.70;63.40
610;DHT22;292;48.800;9.216;2023-05-17T07:02:09;11.70;63.30
610;DHT22;292;48.800;9.216;2023-05-17T07:04:37;11.80;63.10
610;DHT22;292;48.800;9.216;2023-05-17T07:07:04;11.80;63.00
610;DHT22;292;48.800;9.216;2023-05-17T07:09:32;11.90;62.70
610;DHT22;292;48.800;9.216;2023-05-17T07:11:59;12.00;62.50
610;DHT22;292;48.800;9.216;2023-05-17T07:14:27;12.00;62.30
610;DHT22;292;48.800;9.216;2023-05-17T07:16:54;12.10;62.30
610;DHT22;292;48.800;9.216;2023-05-17T07:19:21;12.20;62.30
610;DHT22;292;48.800;9.216;2023-05-17T07:21:48;12.20;61.80
610;DHT22;292;48.800;9.216;2023-05-17T07:24:15;12.30;61.40
610;DHT22;292;48.800;9.216;2023-05-17T07:26:44;12.40;61.40
610;DHT22;292;48.800;9.216;2023-05-17T07:29:11;12.40;61.20
610;DHT22;292;48.800;9.216;2023-05-17T07:31:38;12.50;61.10
610;DHT22;292;48.800;9.216;2023-05-17T07:34:05;12.50;61.00
610;DHT22;292;48.800;9.216;2023-05-17T07:36:32;12.50;61.00
610;DHT22;292;48.800;9.216;2023-05-17T07:38:59;12.60;61.00
610;DHT22;292;48.800;9.216;2023-05-17T07:41:26;12.60;60.80
610;DHT22;292;48.800;9.216;2023-05-17T07:43:55;12.60;60.70
610;DHT22;292;48.800;9.216;2023-05-17T07:46:22;12.70;60.40
610;DHT22;292;48.800;9.216;2023-05-17T07:48:49;12.70;60.40
610;DHT22;292;48.800;9.216;2023-05-17T07:51:16;12.70;60.20
610;DHT22;292;48.800;9.216;2023-05-17T07:53:44;12.80;60.10
610;DHT22;292;48.800;9.216;2023-05-17T07:56:11;12.80;60.20
610;DHT22;292;48.800;9.216;2023-05-17T07:58:38;12.80;60.50
610;DHT22;292;48.800;9.216;2023-05-17T08:01:07;12.80;60.40
610;DHT22;292;48.800;9.216;2023-05-17T08:03:34;12.90;60.50
610;DHT22;292;48.800;9.216;2023-05-17T08:06:02;12.90;60.40
610;DHT22;292;48.800;9.216;2023-05-17T08:08:29;13.00;60.40
610;DHT22;292;48.800;9.216;2023-05-17T08:10:56;13.00;60.20
610;DHT22;292;48.800;9.216;2023-05-17T08:13:23;13.00;60.40
610;DHT22;292;48.800;9.216;2023-05-17T08:15:50;13.10;60.20
610;DHT22;292;48.800;9.216;2023-05-17T08:18:19;13.20;60.00
610;DHT22;292;48.800;9.216;2023-05-17T08:20:46;13.20;59.80
610;DHT22;292;48.800;9.216;2023-05-17T08:23:14;13.20;59.80
610;DHT22;292;48.800;9.216;2023-05-17T08:25:41;13.30;59.80
610;DHT22;292;48.800;9.216;2023-05-17T08:28:08;13.30;59.80
610;DHT22;292;48.800;9.216;2023-05-17T08:30:35;13.40;59.70
610;DHT22;292;48.800;9.216;2023-05-17T08:33:02;13.50;59.30
610;DHT22;292;48.800;9.216;2023-05-17T08:35:31;13.60;59.20
610;DHT22;292;48.800;9.216;2023-05-17T08:37:58;13.70;59.20
610;DHT22;292;48.800;9.216;2023-05-17T08:40:26;13.70;58.90
610;DHT22;292;48.800;9.216;2023-05-17T08:42:53;13.70;58.60
610;DHT22;292;48.800;9.216;2023-05-17T08:45:20;13.80;58.10
610;DHT22;292;48.800;9.216;2023-05-17T08:47:48;13.80;57.80
610;DHT22;292;48.800;9.216;2023-05-17T08:50:15;13.80;57.80
610;DHT22;292;48.800;9.216;2023-05-17T08:52:45;13.90;57.80
610;DHT22;292;48.800;9.216;2023-05-17T08:55:12;13.90;58.00
610;DHT22;292;48.800;9.216;2023-05-17T08:57:41;13.90;58.00
610;DHT22;292;48.800;9.216;2023-05-17T09:00:11;14.00;57.80
610;DHT22;292;48.800;9.216;2023-05-17T09:02:40;14.00;58.10
610;DHT22;292;48.800;9.216;2023-05-17T09:05:09;14.20;57.80
610;DHT22;292;48.800;9.216;2023-05-17T09:07:37;14.20;57.30
610;DHT22;292;48.800;9.216;2023-05-17T09:10:08;14.30;57.00
610;DHT22;292;48.800;9.216;2023-05-17T09:12:35;14.40;56.50
610;DHT22;292;48.800;9.216;2023-05-17T09:15:13;14.40;56.40
610;DHT22;292;48.800;9.216;2023-05-17T09:17:41;14.40;56.10
610;DHT22;292;48.800;9.216;2023-05-17T09:20:08;14.40;55.60
610;DHT22;292;48.800;9.216;2023-05-17T09:22:36;14.50;55.40
610;DHT22;292;48.800;9.216;2023-05-17T09:25:03;14.50;54.90
610;DHT22;292;48.800;9.216;2023-05-17T09:27:32;14.50;54.90
610;DHT22;292;48.800;9.216;2023-05-17T09:30:00;14.50;54.80
610;DHT22;292;48.800;9.216;2023-05-17T09:32:27;14.50;53.70
610;DHT22;292;48.800;9.216;2023-05-17T09:34:54;14.50;53.80
610;DHT22;292;48.800;9.216;2023-05-17T09:37:27;14.50;54.10
610;DHT22;292;48.800;9.216;2023-05-17T09:39:55;14.60;54.10
610;DHT22;292;48.800;9.216;2023-05-17T09:42:25;14.60;54.10
610;DHT22;292;48.800;9.216;2023-05-17T09:44:55;14.70;53.80
610;DHT22;292;48.800;9.216;2023-05-17T09:47:24;14.70;53.20
610;DHT22;292;48.800;9.216;2023-05-17T09:49:51;14.80;52.90
610;DHT22;292;48.800;9.216;2023-05-17T09:52:19;14.80;52.50
610;DHT22;292;48.800;9.216;2023-05-17T09:54:51;14.80;52.00
610;DHT22;292;48.800;9.216;2023-05-17T09:57:19;14.80;51.40
610;DHT22;292;48.800;9.216;2023-05-17T09:59:46;14.80;51.40
610;DHT22;292;48.800;9.216;2023-05-17T10:02:20;14.80;51.70
610;DHT22;292;48.800;9.216;2023-05-17T10:04:53;14.90;51.20
610;DHT22;292;48.800;9.216;2023-05-17T10:07:23;15.00;51.00
610;DHT22;292;48.800;9.216;2023-05-17T10:09:52;15.00;50.10
610;DHT22;292;48.800;9.216;2023-05-17T10:12:21;15.10;49.30
610;DHT22;292;48.800;9.216;2023-05-17T10:14:49;15.00;48.90
610;DHT22;292;48.800;9.216;2023-05-17T10:17:18;15.10;49.20
610;DHT22;292;48.800;9.216;2023-05-17T10:19:46;15.10;49.30
610;DHT22;292;48.800;9.216;2023-05-17T10:22:14;15.10;49.40
610;DHT22;292;48.800;9.216;2023-05-17T10:24:43;15.10;49.40
610;DHT22;292;48.800;9.216;2023-05-17T10:27:11;15.10;49.60
610;DHT22;292;48.800;9.216;2023-05-17T10:29:38;15.20;49.80
610;DHT22;292;48.800;9.216;2023-05-17T10:32:06;15.20;49.60
610;DHT22;292;48.800;9.216;2023-05-17T10:34:38;15.20;48.60
610;DHT22;292;48.800;9.216;2023-05-17T10:37:05;15.20;48.40
610;DHT22;292;48.800;9.216;2023-05-17T10:39:33;15.20;48.40
610;DHT22;292;48.800;9.216;2023-05-17T10:42:05;15.20;48.80
610;DHT22;292;48.800;9.216;2023-05-17T10:44:33;15.20;49.20
610;DHT22;292;48.800;9.216;2023-05-17T10:47:03;15.30;49.40
610;DHT22;292;48.800;9.216;2023-05-17T10:49:31;15.40;49.30
610;DHT22;292;48.800;9.216;2023-05-17T10:52:10;15.40;49.00
610;DHT22;292;48.800;9.216;2023-05-17T10:54:41;15.50;49.30
610;DHT22;292;48.800;9.216;2023-05-17T10:57:18;15.50;49.30
610;DHT22;292;48.800;9.216;2023-05-17T10:59:58;15.50;49.30
610;DHT22;292;48.800;9.216;2023-05-17T11:02:27;15.50;49.00
610;DHT22;292;48.800;9.216;2023-05-17T11:04:57;15.50;48.60
610;DHT22;292;48.800;9.216;2023-05-17T11:07:27;15.50;48.60
610;DHT22;292;48.800;9.216;2023-05-17T11:10:03;15.50;48.60
610;DHT22;292;48.800;9.216;2023-05-17T11:12:35;15.50;48.60
610;DHT22;292;48.800;9.216;2023-05-17T11:15:08;15.50;48.50
610;DHT22;292;48.800;9.216;2023-05-17T11:17:46;15.50;48.40
610;DHT22;292;48.800;9.216;2023-05-17T11:20:32;15.40;48.50
610;DHT22;292;48.800;9.216;2023-05-17T11:23:15;15.50;48.90
610;DHT22;292;48.800;9.216;2023-05-17T11:25:49;15.50;48.90
610;DHT22;292;48.800;9.216;2023-05-17T11:28:18;15.50;48.90
610;DHT22;292;48.800;9.216;2023-05-17T11:30:45;15.50;49.30
610;DHT22;292;48.800;9.216;2023-05-17T11:33:17;15.40;49.30
610;DHT22;292;48.800;9.216;2023-05-17T11:35:46;15.40;49.60
610;DHT22;292;48.800;9.216;2023-05-17T11:38:16;15.30;49.60
610;DHT22;292;48.800;9.216;2023-05-17T11:40:44;15.30;49.80
610;DHT22;292;48.800;9.216;2023-05-17T11:43:13;15.30;49.80
610;DHT22;292;48.800;9.216;2023-05-17T11:45:46;15.30;49.70
610;DHT22;292;48.800;9.216;2023-05-17T11:48:14;15.30;49.70
610;DHT22;292;48.800;9.216;2023-05-17T11:50:43;15.20;49.60
610;DHT22;292;48.800;9.216;2023-05-17T11:53:11;15.20;49.60
610;DHT22;292;48.800;9.216;2023-05-17T11:55:41;15.20;49.40
610;DHT22;292;48.800;9.216;2023-05-17T11:58:09;15.10;49.60
610;DHT22;292;48.800;9.216;2023-05-17T12:00:37;15.10;49.70
610;DHT22;292;48.800;9.216;2023-05-17T12:03:18;15.10;49.70
610;DHT22;292;48.800;9.216;2023-05-17T12:05:47;15.10;49.70
610;DHT22;292;48.800;9.216;2023-05-17T12:08:15;15.10;49.80
610;DHT22;292;48.800;9.216;2023-05-17T12:10:48;15.20;49.80
610;DHT22;292;48.800;9.216;2023-05-17T12:13:17;15.20;49.80
610;DHT22;292;48.800;9.216;2023-05-17T12:15:46;15.20;50.00
610;DHT22;292;48.800;9.216;2023-05-17T12:18:14;15.30;49.80
610;DHT22;292;48.800;9.216;2023-05-17T12:20:57;15.30;49.40
610;DHT22;292;48.800;9.216;2023-05-17T12:23:28;15.30;49.00
610;DHT22;292;48.800;9.216;2023-05-17T12:26:19;15.30;48.90
610;DHT22;292;48.800;9.216;2023-05-17T12:28:53;15.30;49.20
610;DHT22;292;48.800;9.216;2023-05-17T12:31:24;15.40;49.30
610;DHT22;292;48.800;9.216;2023-05-17T12:33:53;15.40;49.30
610;DHT22;292;48.800;9.216;2023-05-17T12:36:23;15.50;49.30
610;DHT22;292;48.800;9.216;2023-05-17T12:38:52;15.50;48.90
610;DHT22;292;48.800;9.216;2023-05-17T12:41:21;15.60;48.90
610;DHT22;292;48.800;9.216;2023-05-17T12:43:50;15.70;49.00
610;DHT22;292;48.800;9.216;2023-05-17T12:46:21;15.70;48.80
610;DHT22;292;48.800;9.216;2023-05-17T12:48:49;15.80;48.80
610;DHT22;292;48.800;9.216;2023-05-17T12:51:18;15.90;48.50
610;DHT22;292;48.800;9.216;2023-05-17T12:53:49;15.90;48.50
610;DHT22;292;48.800;9.216;2023-05-17T12:56:21;15.90;48.90
610;DHT22;292;48.800;9.216;2023-05-17T12:59:05;16.00;49.00
610;DHT22;292;48.800;9.216;2023-05-17T13:01:33;16.00;49.00
610;DHT22;292;48.800;9.216;2023-05-17T13:04:04;16.00;49.00
610;DHT22;292;48.800;9.216;2023-05-17T13:06:42;16.00;48.60
610;DHT22;292;48.800;9.216;2023-05-17T13:09:10;16.00;48.80
610;DHT22;292;48.800;9.216;2023-05-17T13:11:40;15.90;48.80
610;DHT22;292;48.800;9.216;2023-05-17T13:14:09;15.90;49.00
610;DHT22;292;48.800;9.216;2023-05-17T13:16:37;15.90;48.90
610;DHT22;292;48.800;9.216;2023-05-17T13:19:11;15.90;49.00
610;DHT22;292;48.800;9.216;2023-05-17T13:21:39;15.90;48.60
610;DHT22;292;48.800;9.216;2023-05-17T13:24:09;15.90;48.60
610;DHT22;292;48.800;9.216;2023-05-17T13:26:36;15.90;48.80
610;DHT22;292;48.800;9.216;2023-05-17T13:29:04;15.90;48.90
610;DHT22;292;48.800;9.216;2023-05-17T13:31:31;15.90;48.90
610;DHT22;292;48.800;9.216;2023-05-17T13:33:58;15.90;48.90
610;DHT22;292;48.800;9.216;2023-05-17T13:36:27;15.90;48.90
610;DHT22;292;48.800;9.216;2023-05-17T13:38:54;16.00;48.90
610;DHT22;292;48.800;9.216;2023-05-17T13:41:22;16.00;48.80
610;DHT22;292;48.800;9.216;2023-05-17T13:43:49;16.10;48.80
610;DHT22;292;48.800;9.216;2023-05-17T13:46:18;16.10;48.80
610;DHT22;292;48.800;9.216;2023-05-17T13:48:45;16.10;48.80
610;DHT22;292;48.800;9.216;2023-05-17T13:51:13;16.10;48.50
610;DHT22;292;48.800;9.216;2023-05-17T13:53:41;16.10;48.10
610;DHT22;292;48.800;9.216;2023-05-17T13:56:08;16.20;47.80
610;DHT22;292;48.800;9.216;2023-05-17T13:58:35;16.20;47.80
610;DHT22;292;48.800;9.216;2023-05-17T14:01:03;16.20;47.80
610;DHT22;292;48.800;9.216;2023-05-17T14:03:34;16.20;47.60
610;DHT22;292;48.800;9.216;2023-05-17T14:06:04;16.20;47.60
610;DHT22;292;48.800;9.216;2023-05-17T14:08:32;16.20;47.40
610;DHT22;292;48.800;9.216;2023-05-17T14:11:01;16.20;47.60
610;DHT22;292;48.800;9.216;2023-05-17T14:13:29;16.20;47.60
610;DHT22;292;48.800;9.216;2023-05-17T14:15:56;16.20;46.90
610;DHT22;292;48.800;9.216;2023-05-17T14:18:26;16.30;46.80
610;DHT22;292;48.800;9.216;2023-05-17T14:20:55;16.30;46.90
610;DHT22;292;48.800;9.216;2023-05-17T14:23:22;16.30;46.60
610;DHT22;292;48.800;9.216;2023-05-17T14:25:50;16.40;46.20
610;DHT22;292;48.800;9.216;2023-05-17T14:28:17;16.40;46.10
610;DHT22;292;48.800;9.216;2023-05-17T14:30:46;16.40;46.00
610;DHT22;292;48.800;9.216;2023-05-17T14:33:13;16.40;45.80
610;DHT22;292;48.800;9.216;2023-05-17T14:35:41;16.40;45.80
610;DHT22;292;48.800;9.216;2023-05-17T14:38:10;16.50;46.00
610;DHT22;292;48.800;9.216;2023-05-17T14:40:37;16.50;45.80
610;DHT22;292;48.800;9.216;2023-05-17T14:43:04;16.50;45.70
610;DHT22;292;48.800;9.216;2023-05-17T14:45:33;16.40;45.60
610;DHT22;292;48.800;9.216;2023-05-17T14:48:00;16.40;45.60
610;DHT22;292;48.800;9.216;2023-05-17T14:50:27;16.40;45.40
610;DHT22;292;48.800;9.216;2023-05-17T14:52:57;16.40;45.30
610;DHT22;292;48.800;9.216;2023-05-17T14:55:26;16.30;45.30
610;DHT22;292;48.800;9.216;2023-05-17T14:57:53;16.30;45.30
610;DHT22;292;48.800;9.216;2023-05-17T15:00:22;16.30;45.30
610;DHT22;292;48.800;9.216;2023-05-17T15:02:51;16.30;45.30
610;DHT22;292;48.800;9.216;2023-05-17T15:05:18;16.20;45.60
610;DHT22;292;48.800;9.216;2023-05-17T15:07:46;16.20;45.80
610;DHT22;292;48.800;9.216;2023-05-17T15:10:14;16.10;46.10
610;DHT22;292;48.800;9.216;2023-05-17T15:12:43;16.10;46.40
610;DHT22;292;48.800;9.216;2023-05-17T15:15:12;16.10;46.80
610;DHT22;292;48.800;9.216;2023-05-17T15:17:39;16.00;47.00
610;DHT22;292;48.800;9.216;2023-05-17T15:20:07;16.00;47.30
610;DHT22;292;48.800;9.216;2023-05-17T15:22:35;15.90;47.40
610;DHT22;292;48.800;9.216;2023-05-17T15:25:03;15.90;47.40
610;DHT22;292;48.800;9.216;2023-05-17T15:27:31;15.90;47.20
610;DHT22;292;48.800;9.216;2023-05-17T15:29:59;15.80;47.20
610;DHT22;292;48.800;9.216;2023-05-17T15:32:26;15.80;47.20
610;DHT22;292;48.800;9.216;2023-05-17T15:34:54;15.80;46.80
610;DHT22;292;48.800;9.216;2023-05-17T15:37:23;15.80;46.80
610;DHT22;292;48.800;9.216;2023-05-17T15:39:50;15.80;46.80
610;DHT22;292;48.800;9.216;2023-05-17T15:42:17;15.80;46.60
610;DHT22;292;48.800;9.216;2023-05-17T15:44:46;15.80;46.50
610;DHT22;292;48.800;9.216;2023-05-17T15:47:14;15.80;46.20
610;DHT22;292;48.800;9.216;2023-05-17T15:49:41;15.90;46.10
610;DHT22;292;48.800;9.216;2023-05-17T15:52:08;15.90;46.00
610;DHT22;292;48.800;9.216;2023-05-17T15:54:37;15.90;46.00
610;DHT22;292;48.800;9.216;2023-05-17T15:57:04;15.90;46.10
610;DHT22;292;48.800;9.216;2023-05-17T15:59:31;16.00;46.20
610;DHT22;292;48.800;9.216;2023-05-17T16:01:59;16.00;46.50
610;DHT22;292;48.800;9.216;2023-05-17T16:04:27;16.00;46.60
610;DHT22;292;48.800;9.216;2023-05-17T16:06:54;16.00;46.50
610;DHT22;292;48.800;9.216;2023-05-17T16:09:21;16.00;46.40
610;DHT22;292;48.800;9.216;2023-05-17T16:11:48;16.10;46.10
610;DHT22;292;48.800;9.216;2023-05-17T16:14:16;16.30;46.00
610;DHT22;292;48.800;9.216;2023-05-17T16:16:43;16.40;45.60
610;DHT22;292;48.800;9.216;2023-05-17T16:19:11;16.50;44.60
610;DHT22;292;48.800;9.216;2023-05-17T16:21:39;16.60;44.20
610;DHT22;292;48.800;9.216;2023-05-17T16:24:06;16.60;44.00
610;DHT22;292;48.800;9.216;2023-05-17T16:26:34;16.60;43.70
610;DHT22;292;48.800;9.216;2023-05-17T16:29:02;16.60;43.40
610;DHT22;292;48.800;9.216;2023-05-17T16:31:29;16.70;43.60
610;DHT22;292;48.800;9.216;2023-05-17T16:33:56;16.70;43.20
610;DHT22;292;48.800;9.216;2023-05-17T16:36:24;16.70;43.00
610;DHT22;292;48.800;9.216;2023-05-17T16:38:53;16.60;43.00
610;DHT22;292;48.800;9.216;2023-05-17T16:41:19;16.60;43.20
610;DHT22;292;48.800;9.216;2023-05-17T16:43:47;16.60;43.00